createdAt,value
2022-11-12T00:03:35.575Z,101437.80
2022-11-12T00:08:38.383Z,101444.41
2022-11-12T00:13:41.141Z,101448.23
2022-11-12T00:18:43.929Z,101444.90
2022-11-12T00:23:46.725Z,101450.79
2022-11-12T00:28:49.586Z,101456.02
2022-11-12T00:33:52.383Z,101455.69
2022-11-12T00:38:55.144Z,101457.81
2022-11-12T00:43:57.973Z,101460.96
2022-11-12T00:49:00.924Z,101463.94
2022-11-12T00:54:04.379Z,101463.77
2022-11-12T00:59:07.170Z,101459.39
2022-11-12T01:04:10.354Z,101457.50
2022-11-12T01:09:13.290Z,101460.33
2022-11-12T01:14:16.056Z,101457.89
2022-11-12T01:19:18.872Z,101461.02
2022-11-12T01:24:21.672Z,101464.16
2022-11-12T01:29:24.539Z,101462.59
2022-11-12T01:34:27.868Z,101462.77
2022-11-12T01:39:30.649Z,101465.06
2022-11-12T01:44:35.594Z,101470.66
2022-11-12T01:50:01.443Z,101475.37
2022-11-12T01:55:11.927Z,101479.02
2022-11-12T02:00:16.140Z,101485.83
2022-11-12T02:05:20.941Z,101490.04
2022-11-12T02:10:23.747Z,101490.05
2022-11-12T02:15:28.092Z,101483.06
2022-11-12T02:20:35.982Z,101484.63
2022-11-12T02:25:38.790Z,101490.71
2022-11-12T02:30:47.826Z,101496.13
2022-11-12T02:35:50.608Z,101502.59
2022-11-12T02:40:53.432Z,101504.85
2022-11-12T02:45:56.401Z,101511.65
2022-11-12T02:50:59.293Z,101519.15
2022-11-12T02:56:02.238Z,101516.73
2022-11-12T03:01:05.537Z,101516.77
2022-11-12T03:06:08.349Z,101516.25
2022-11-12T03:11:13.884Z,101515.91
2022-11-12T03:16:16.679Z,101510.85
2022-11-12T03:21:19.438Z,101509.64
2022-11-12T03:26:22.260Z,101510.31
2022-11-12T03:31:25.275Z,101516.08
2022-11-12T03:36:28.285Z,101516.77
2022-11-12T03:41:31.010Z,101513.67
2022-11-12T03:46:33.758Z,101512.82
2022-11-12T03:51:36.500Z,101513.86
2022-11-12T03:56:39.442Z,101507.94
2022-11-12T04:01:42.237Z,101503.79
2022-11-12T04:07:03.414Z,101505.38
2022-11-12T04:12:26.197Z,101505.90
2022-11-12T04:17:47.434Z,101503.30
2022-11-12T04:22:50.171Z,101503.66
2022-11-12T04:27:52.949Z,101501.39
2022-11-12T04:32:56.851Z,101502.45
2022-11-12T04:37:59.665Z,101499.65
2022-11-12T04:43:22.750Z,101493.91
2022-11-12T04:48:26.404Z,101488.69
2022-11-12T04:53:31.148Z,101484.86
2022-11-12T04:58:33.878Z,101485.21
2022-11-12T05:03:36.607Z,101487.13
2022-11-12T05:08:39.382Z,101495.15
2022-11-12T05:13:42.154Z,101495.67
2022-11-12T05:18:44.918Z,101494.29
2022-11-12T05:23:47.648Z,101495.50
2022-11-12T05:28:50.406Z,101505.61
2022-11-12T05:33:53.164Z,101505.42
2022-11-12T05:38:55.969Z,101511.34
2022-11-12T05:43:58.817Z,101512.05
2022-11-12T05:49:01.604Z,101514.33
2022-11-12T05:54:05.236Z,101517.29
2022-11-12T05:59:09.989Z,101519.03
2022-11-12T06:04:16.552Z,101520.77
2022-11-12T06:09:19.307Z,101523.91
2022-11-12T06:14:22.066Z,101527.40
2022-11-12T06:19:24.797Z,101533.99
2022-11-12T06:24:34.704Z,101534.16
2022-11-12T06:29:38.863Z,101541.66
2022-11-12T06:34:41.633Z,101546.73
2022-11-12T06:39:44.381Z,101548.98
2022-11-12T06:44:47.136Z,101550.55
2022-11-12T06:49:49.931Z,101544.96
2022-11-12T06:54:53.131Z,101548.44
2022-11-12T06:59:56.138Z,101554.39
2022-11-12T07:04:59.012Z,101555.61
2022-11-12T07:10:01.916Z,101558.03
2022-11-12T07:15:05.257Z,101564.27
2022-11-12T07:20:09.288Z,101565.27
2022-11-12T07:25:12.032Z,101571.02
2022-11-12T07:30:15.223Z,101578.84
2022-11-12T07:35:17.999Z,101578.66
2022-11-12T07:40:22.044Z,101581.27
2022-11-12T07:45:24.775Z,101580.71
2022-11-12T07:50:27.638Z,101580.69
2022-11-12T07:55:30.474Z,101579.27
2022-11-12T08:00:33.333Z,101582.55
2022-11-12T08:05:36.215Z,101590.88
2022-11-12T08:10:39.055Z,101596.61
2022-11-12T08:15:41.805Z,101598.87
2022-11-12T08:20:44.696Z,101602.49
2022-11-12T08:25:47.495Z,101602.48
2022-11-12T08:30:50.360Z,101604.20
2022-11-12T08:35:53.161Z,101613.10
2022-11-12T08:40:59.584Z,101617.45
2022-11-12T08:46:03.918Z,101625.48
2022-11-12T08:51:07.530Z,101632.11
2022-11-12T08:56:10.261Z,101632.11
2022-11-12T09:01:13.169Z,101639.25
2022-11-12T09:06:16.061Z,101637.14
2022-11-12T09:11:19.179Z,101648.98
2022-11-12T09:16:21.956Z,101651.41
2022-11-12T09:21:25.020Z,101638.49
2022-11-12T09:26:27.834Z,101648.59
2022-11-12T09:31:30.688Z,101645.63
2022-11-12T09:36:38.653Z,101643.70
2022-11-12T09:41:42.912Z,101645.42
2022-11-12T09:46:48.566Z,101643.13
2022-11-12T09:52:02.288Z,101638.34
2022-11-12T09:57:06.110Z,101636.34
2022-11-12T10:02:27.262Z,101639.44
2022-11-12T10:07:36.009Z,101640.08
2022-11-12T10:13:09.800Z,101637.59
2022-11-12T10:18:25.893Z,101641.84
2022-11-12T10:23:41.128Z,101634.77
2022-11-12T10:28:48.402Z,101634.77
2022-11-12T10:33:51.232Z,101634.19
2022-11-12T10:38:55.840Z,101631.66
2022-11-12T10:44:04.599Z,101630.36
2022-11-12T10:49:16.503Z,101622.88
2022-11-12T10:54:28.224Z,101623.51
2022-11-12T10:59:32.863Z,101618.57
2022-11-12T11:04:38.023Z,101616.22
2022-11-12T11:10:03.230Z,101614.77
2022-11-12T11:15:20.257Z,101609.89
2022-11-12T11:20:26.649Z,101608.29
2022-11-12T11:25:33.543Z,101604.58
2022-11-12T11:30:41.374Z,101608.58
2022-11-12T11:35:57.964Z,101606.98
2022-11-12T11:41:17.489Z,101608.02
2022-11-12T11:46:29.121Z,101605.90
2022-11-12T11:52:27.004Z,101608.65
2022-11-12T11:57:39.374Z,101602.99
2022-11-12T12:03:05.216Z,101604.94
2022-11-12T12:08:18.942Z,101604.52
2022-11-12T12:13:28.574Z,101604.11
2022-11-12T12:18:45.379Z,101609.00
2022-11-12T12:23:56.356Z,101611.25
2022-11-12T12:29:17.255Z,101614.76
2022-11-12T12:34:38.816Z,101619.73
2022-11-12T12:39:53.950Z,101622.09
2022-11-12T12:45:16.735Z,101629.30
2022-11-12T12:50:21.593Z,101626.39
2022-11-12T12:55:40.821Z,101632.19
2022-11-12T13:00:50.051Z,101629.94
2022-11-12T13:06:27.515Z,101626.67
2022-11-12T13:12:01.392Z,101632.33
2022-11-12T13:17:07.159Z,101631.64
2022-11-12T13:22:18.750Z,101630.77
2022-11-12T13:27:46.032Z,101639.20
2022-11-12T13:32:49.764Z,101636.77
2022-11-12T13:38:15.965Z,101641.66
2022-11-12T13:43:31.526Z,101636.25
2022-11-12T13:48:43.285Z,101638.02
2022-11-12T13:53:47.091Z,101644.15
2022-11-12T13:58:54.418Z,101643.99
2022-11-12T14:03:57.332Z,101649.79
2022-11-12T14:09:00.094Z,101655.95
2022-11-12T14:14:25.229Z,101654.41
2022-11-12T14:20:21.240Z,101654.97
2022-11-12T14:25:26.559Z,101656.77
2022-11-12T14:30:32.945Z,101664.67
2022-11-12T14:35:37.959Z,101657.54
2022-11-12T14:40:49.211Z,101672.77
2022-11-12T14:45:54.429Z,101672.66
2022-11-12T14:51:08.586Z,101680.71
2022-11-12T14:56:20.642Z,101681.60
2022-11-12T15:06:55.212Z,101678.63
2022-11-12T15:11:58.411Z,101667.82
2022-11-12T15:17:01.801Z,101679.73
2022-11-12T15:22:21.728Z,101657.73
2022-11-12T15:27:36.321Z,101656.15
2022-11-12T15:32:39.116Z,101661.59
2022-11-12T15:37:43.673Z,101663.48
2022-11-12T15:42:48.175Z,101670.66
2022-11-12T15:47:50.960Z,101680.13
2022-11-12T15:52:54.790Z,101674.55
2022-11-12T15:57:58.404Z,101682.61
2022-11-12T16:03:21.267Z,101675.48
2022-11-12T16:08:24.683Z,101689.30
2022-11-12T16:13:36.161Z,101697.04
2022-11-12T16:18:39.905Z,101690.96
2022-11-12T16:23:42.848Z,101699.34
2022-11-12T16:28:45.821Z,101706.48
2022-11-12T16:33:48.684Z,101700.73
2022-11-12T16:38:51.451Z,101705.48
2022-11-12T16:43:54.647Z,101707.09
2022-11-12T16:48:57.486Z,101695.76
2022-11-12T16:54:03.451Z,101698.90
2022-11-12T16:59:15.955Z,101703.96
2022-11-12T17:04:18.892Z,101698.38
2022-11-12T17:09:21.653Z,101703.79
2022-11-12T17:14:28.379Z,101707.81
2022-11-12T17:19:31.396Z,101702.75
2022-11-12T17:24:34.381Z,101707.81
2022-11-12T17:29:37.243Z,101715.11
2022-11-12T17:34:40.043Z,101708.64
2022-11-12T17:39:44.684Z,101710.88
2022-11-12T17:44:47.533Z,101711.02
2022-11-12T17:49:51.301Z,101717.48
2022-11-12T17:54:54.114Z,101708.23
2022-11-12T17:59:56.942Z,101714.52
2022-11-12T18:04:59.677Z,101708.77
2022-11-12T18:10:02.493Z,101716.29
2022-11-12T18:15:05.744Z,101717.70
2022-11-12T18:20:09.116Z,101720.30
2022-11-12T18:25:14.601Z,101721.35
2022-11-12T18:30:19.407Z,101718.22
2022-11-12T18:35:27.271Z,101721.03
2022-11-12T18:40:32.591Z,101727.49
2022-11-12T18:45:35.444Z,101730.27
2022-11-12T18:50:38.281Z,101729.04
2022-11-12T18:55:41.180Z,101733.02
2022-11-12T19:00:44.066Z,101732.17
2022-11-12T19:05:48.540Z,101732.36
2022-11-12T19:11:04.155Z,101738.13
2022-11-12T19:16:14.282Z,101732.21
2022-11-12T19:21:20.898Z,101733.27
2022-11-12T19:26:24.113Z,101736.91
2022-11-12T19:31:28.304Z,101739.52
2022-11-12T19:36:31.430Z,101741.12
2022-11-12T19:41:34.200Z,101734.50
2022-11-12T19:46:37.071Z,101732.39
2022-11-12T19:51:39.855Z,101738.66
2022-11-12T19:56:42.659Z,101739.33
2022-11-12T20:01:45.539Z,101742.27
2022-11-12T20:06:48.456Z,101742.78
2022-11-12T20:11:51.265Z,101743.30
2022-11-12T20:16:54.053Z,101750.27
2022-11-12T20:21:57.017Z,101741.19
2022-11-12T20:26:59.779Z,101749.04
2022-11-12T20:32:02.894Z,101745.73
2022-11-12T20:37:05.752Z,101751.84
2022-11-12T20:42:08.554Z,101750.11
2022-11-12T20:47:11.906Z,101754.81
2022-11-12T20:52:14.679Z,101753.91
2022-11-12T20:57:17.508Z,101756.02
2022-11-12T21:02:20.256Z,101763.70
2022-11-12T21:07:23.104Z,101754.27
2022-11-12T21:12:25.942Z,101757.94
2022-11-12T21:17:28.736Z,101754.96
2022-11-12T21:22:32.695Z,101761.79
2022-11-12T21:27:35.578Z,101755.85
2022-11-12T21:32:38.563Z,101756.19
2022-11-12T21:37:41.341Z,101761.06
2022-11-12T21:42:45.121Z,101762.48
2022-11-12T21:47:47.940Z,101759.36
2022-11-12T21:52:50.686Z,101766.50
2022-11-12T21:57:53.484Z,101770.18
2022-11-12T22:02:56.424Z,101773.15
2022-11-12T22:07:59.161Z,101768.77
2022-11-12T22:18:25.512Z,101763.70
2022-11-12T22:23:29.207Z,101762.11
2022-11-12T22:28:33.877Z,101763.35
2022-11-12T22:33:37.408Z,101764.73
2022-11-12T22:38:47.668Z,101764.35
2022-11-12T22:43:53.088Z,101762.76
2022-11-12T22:48:56.779Z,101756.96
2022-11-12T22:54:01.818Z,101755.97
2022-11-12T22:59:05.029Z,101757.92
2022-11-12T23:04:08.153Z,101759.00
2022-11-12T23:09:16.070Z,101756.73
2022-11-12T23:14:18.833Z,101755.69
2022-11-12T23:19:21.732Z,101755.48
2022-11-12T23:24:24.523Z,101760.19
2022-11-12T23:29:27.269Z,101756.01
2022-11-12T23:34:30.026Z,101756.53
2022-11-12T23:39:32.752Z,101760.02
2022-11-12T23:44:35.527Z,101759.67
2022-11-12T23:49:38.337Z,101763.15
2022-11-12T23:54:41.083Z,101763.67
2022-11-12T23:59:44.082Z,101757.40
